This is the latest recevied weather packets stored in our database for station/object CE3SUR-16. If no packets are shown the sender has not sent any weather packets the latest 10 day(s).
| Time | Temp. | Humidity | Pressure | Rain* | Wind** | Luminosity | Snow |
|---|---|---|---|---|---|---|---|
| 1777831818 | 26.67° C | 51% | 955.8 hPa | - | - | - | - |
| 1777831723 | 26.67° C | 51% | 955.8 hPa | - | - | - | - |
| 1777829923 | 26.11° C | 52% | 955.9 hPa | - | - | - | - |
| 1777828126 | 25.56° C | 53% | 956.5 hPa | - | - | - | - |
| 1777826326 | 24.44° C | 55% | 956.7 hPa | - | - | - | - |
| 1777824526 | 24.44° C | 60% | 957 hPa | - | - | - | - |
| 1777822725 | 23.33° C | 62% | 957 hPa | - | - | - | - |
| 1777820925 | 21.11° C | 68% | 957.4 hPa | - | - | - | - |
| 1777819125 | 21.11° C | 71% | 957.6 hPa | - | - | - | - |
| 1777817325 | 20° C | 76% | 957.6 hPa | - | - | - | - |
| 1777815524 | 18.89° C | 77% | 957.4 hPa | - | - | - | - |
| 1777813724 | 17.78° C | 81% | 957.6 hPa | - | - | - | - |
| 1777811924 | 17.78° C | 81% | 957.4 hPa | - | - | - | - |
| 1777810123 | 13.89° C | 97% | 957 hPa | - | - | - | - |
| 1777808323 | 13.33° C | 99% | 956.7 hPa | - | - | - | - |
| 1777806525 | 13.33° C | 98% | 956 hPa | - | - | - | - |
| 1777804725 | 13.89° C | 98% | 955.9 hPa | - | - | - | - |
| 1777802925 | 13.89° C | 98% | 956 hPa | - | - | - | - |
| 1777801124 | 13.33° C | 99% | 955.9 hPa | - | - | - | - |
| 1777799324 | 14.44° C | 97% | 955.9 hPa | - | - | - | - |
| 1777797524 | 14.44° C | 95% | 955.9 hPa | - | - | - | - |
| 1777795724 | 15° C | 93% | 956.2 hPa | - | - | - | - |
| 1777793924 | 15° C | 92% | 956.6 hPa | - | - | - | - |
| 1777792123 | 15.56° C | 91% | 956.7 hPa | - | - | - | - |
| 1777790323 | 15.56° C | 89% | 956.3 hPa | - | - | - | - |
* Rain since midnight (hover to see other rain measurements)
** Current wind speed in m/s (hover to see current wind gust speed)